Time;durP1;ratioP1;P1;durP2;ratioP2;P2;SDS_P1;SDS_P2;PMS_P1;PMS_P2;Temp;Humidity;BMP_temperature;BMP_pressure;BME280_temperature;BME280_humidity;BME280_pressure;Samples;Min_cycle;Max_cycle;Signal;HPM_P1;HPM_P2
2021/12/21 00:01:09;;;;;;;0.30;0.30;;;-1.20;99.90;;;;;;5077206;28;20439;-86
2021/12/21 00:03:36;;;;;;;0.30;0.30;;;-1.20;99.90;;;;;;5077062;28;20430;-86
2021/12/21 00:06:04;;;;;;;0.40;0.40;;;-1.20;99.90;;;;;;5077078;28;20427;-86
2021/12/21 00:08:30;;;;;;;0.30;0.30;;;-1.30;99.90;;;;;;5077156;28;20422;-86
2021/12/21 00:10:59;;;;;;;0.30;0.20;;;-1.20;99.90;;;;;;5077702;28;20822;-86
2021/12/21 00:13:39;;;;;;;0.30;0.30;;;-1.20;99.90;;;;;;5076679;28;20508;-86
2021/12/21 00:16:15;;;;;;;0.30;0.30;;;-1.30;99.90;;;;;;5076902;28;20440;-86
2021/12/21 00:18:51;;;;;;;0.30;0.30;;;-1.30;99.90;;;;;;5076659;28;20970;-86
2021/12/21 00:21:31;;;;;;;0.70;0.70;;;-1.20;99.90;;;;;;5076898;28;20439;-86
2021/12/21 00:24:01;;;;;;;0.30;0.30;;;-1.20;99.90;;;;;;5076838;28;20414;-86
2021/12/21 00:26:28;;;;;;;0.30;0.30;;;-1.20;99.90;;;;;;5077270;28;20455;-84
2021/12/21 00:28:57;;;;;;;6.83;0.87;;;-1.20;99.90;;;;;;5076435;28;21021;-86
2021/12/21 00:31:25;;;;;;;0.30;0.30;;;-1.10;99.90;;;;;;5076842;28;20561;-86
2021/12/21 00:33:54;;;;;;;0.40;0.30;;;-1.10;99.90;;;;;;5076396;28;20431;-86
2021/12/21 00:36:23;;;;;;;0.40;0.40;;;-1.10;99.90;;;;;;5076427;28;20443;-86
2021/12/21 00:38:52;;;;;;;0.40;0.40;;;-1.00;99.90;;;;;;5076617;28;20422;-86
2021/12/21 00:41:19;;;;;;;0.30;0.30;;;-1.00;99.90;;;;;;5076482;28;20464;-86
2021/12/21 00:43:46;;;;;;;0.30;0.30;;;-1.00;99.90;;;;;;5076504;28;20471;-86
2021/12/21 00:46:13;;;;;;;0.30;0.30;;;-1.10;99.90;;;;;;5076052;28;20938;-86
2021/12/21 00:48:48;;;;;;;0.30;0.30;;;-1.20;99.90;;;;;;5076622;28;20448;-86
2021/12/21 00:51:17;;;;;;;0.40;0.40;;;-1.20;99.90;;;;;;5076062;28;20547;-86
2021/12/21 00:53:44;;;;;;;1.10;1.03;;;-1.20;99.90;;;;;;5076275;28;20498;-86
2021/12/21 00:56:11;;;;;;;0.30;0.30;;;-1.10;99.90;;;;;;5076031;28;20800;-85
2021/12/21 00:58:38;;;;;;;0.93;0.93;;;-1.10;99.90;;;;;;5076143;28;20796;-86
2021/12/21 01:01:06;;;;;;;0.37;0.37;;;-1.20;99.90;;;;;;5076049;28;20440;-86
2021/12/21 01:03:34;;;;;;;0.30;0.30;;;-1.20;99.90;;;;;;5076139;28;20420;-86
2021/12/21 01:06:09;;;;;;;0.67;0.67;;;-1.30;99.90;;;;;;5076029;28;20456;-86
2021/12/21 01:08:54;;;;;;;0.70;0.70;;;-1.30;99.90;;;;;;5076015;28;20444;-86
2021/12/21 01:11:26;;;;;;;0.30;0.30;;;-1.30;99.90;;;;;;5075914;28;20966;-86
2021/12/21 01:13:57;;;;;;;0.40;0.30;;;-1.40;99.90;;;;;;5075879;28;20400;-86
2021/12/21 01:16:33;;;;;;;0.40;0.40;;;-1.30;99.90;;;;;;5075436;28;20910;-86
2021/12/21 01:19:10;;;;;;;0.30;0.30;;;-1.30;99.90;;;;;;5075630;28;20454;-86
2021/12/21 01:21:43;;;;;;;0.30;0.30;;;-1.30;99.90;;;;;;5075909;28;20452;-85
2021/12/21 01:27:11;;;;;;;0.30;0.30;;;-1.40;99.90;;;;;;5059525;28;20500;-86
2021/12/21 01:29:48;;;;;;;0.43;0.43;;;-1.40;99.90;;;;;;5075596;28;20407;-86
2021/12/21 01:32:22;;;;;;;0.30;0.30;;;-1.40;99.90;;;;;;5075582;28;20439;-86
2021/12/21 01:34:58;;;;;;;0.30;0.30;;;-1.40;99.90;;;;;;5076143;28;20830;-85
2021/12/21 01:37:32;;;;;;;0.50;0.50;;;-1.40;99.90;;;;;;5075115;28;20975;-86
2021/12/21 01:40:14;;;;;;;0.30;0.30;;;-1.40;99.90;;;;;;5075709;28;20494;-86
2021/12/21 01:43:04;;;;;;;0.40;0.40;;;-1.40;99.90;;;;;;5075378;28;20468;-86
2021/12/21 01:51:00;;;;;;;0.30;0.30;;;-1.40;99.90;;;;;;5075163;28;20431;-86
2021/12/21 01:53:27;;;;;;;0.30;0.30;;;-1.50;99.90;;;;;;5075109;28;20455;-86
2021/12/21 01:55:55;;;;;;;0.30;0.30;;;-1.50;99.90;;;;;;5075145;28;20434;-86
2021/12/21 01:58:22;;;;;;;0.30;0.30;;;-1.60;99.90;;;;;;5074432;28;20449;-86
2021/12/21 02:00:49;;;;;;;0.30;0.30;;;-1.60;99.90;;;;;;5074930;28;20444;-86
2021/12/21 02:03:17;;;;;;;0.30;0.30;;;-1.60;99.90;;;;;;5075209;28;20524;-86
2021/12/21 02:05:44;;;;;;;0.30;0.30;;;-1.70;99.90;;;;;;5074864;28;20444;-86
2021/12/21 02:08:11;;;;;;;0.33;0.33;;;-1.70;99.90;;;;;;5074755;28;20484;-86
2021/12/21 02:10:37;;;;;;;0.30;0.30;;;-1.70;99.90;;;;;;5074870;28;20790;-86
2021/12/21 02:13:05;;;;;;;0.40;0.40;;;-1.70;99.90;;;;;;5074748;28;20451;-86
2021/12/21 02:15:32;;;;;;;1.17;1.17;;;-1.80;99.90;;;;;;5075048;28;20449;-86
2021/12/21 02:18:27;;;;;;;0.40;0.40;;;-1.80;99.90;;;;;;5074503;28;20445;-87
2021/12/21 02:20:57;;;;;;;0.33;0.33;;;-1.80;99.90;;;;;;5074196;28;20502;-87
2021/12/21 02:23:29;;;;;;;0.30;0.30;;;-1.90;99.90;;;;;;5074917;28;20461;-87
2021/12/21 02:28:58;;;;;;;0.30;0.30;;;-2.00;99.90;;;;;;5067158;28;21010;-87
2021/12/21 02:31:26;;;;;;;0.30;0.30;;;-2.00;99.90;;;;;;5074690;28;20556;-87
2021/12/21 02:33:53;;;;;;;0.30;0.30;;;-2.00;99.90;;;;;;5074472;28;20453;-86
2021/12/21 02:36:22;;;;;;;0.33;0.33;;;-2.10;99.90;;;;;;5074264;28;20488;-87
2021/12/21 02:38:49;;;;;;;0.30;0.30;;;-2.10;99.90;;;;;;5074305;28;20439;-85
2021/12/21 02:41:15;;;;;;;0.30;0.30;;;-2.10;99.90;;;;;;5074411;28;20439;-87
2021/12/21 02:43:42;;;;;;;0.30;0.30;;;-2.10;99.90;;;;;;5074243;28;20955;-87
2021/12/21 02:46:09;;;;;;;0.40;0.40;;;-2.10;99.90;;;;;;5074193;28;20412;-87
2021/12/21 02:48:36;;;;;;;0.50;0.50;;;-2.10;99.90;;;;;;5074510;28;20476;-88
2021/12/21 02:51:04;;;;;;;0.30;0.30;;;-2.10;99.90;;;;;;5074097;28;21003;-87
2021/12/21 02:53:32;;;;;;;0.50;0.50;;;-2.10;99.90;;;;;;5074133;28;20414;-87
2021/12/21 02:55:59;;;;;;;0.30;0.30;;;-2.10;99.90;;;;;;5074171;28;20425;-87
2021/12/21 02:58:25;;;;;;;0.50;0.50;;;-2.10;99.90;;;;;;5074317;28;20431;-87
2021/12/21 03:00:54;;;;;;;0.30;0.30;;;-2.20;99.90;;;;;;5074155;28;20423;-87
2021/12/21 03:03:22;;;;;;;0.33;0.30;;;-2.20;99.90;;;;;;5074327;28;20473;-87
2021/12/21 03:05:51;;;;;;;0.30;0.30;;;-2.20;99.90;;;;;;5074264;28;20424;-87
2021/12/21 03:08:22;;;;;;;0.77;0.77;;;-2.20;99.90;;;;;;5073633;28;20843;-87
2021/12/21 03:11:05;;;;;;;0.30;0.30;;;-2.20;99.90;;;;;;5073469;28;20412;-87
2021/12/21 03:16:17;;;;;;;0.30;0.30;;;-2.20;99.90;;;;;;5074133;28;20399;-87
2021/12/21 03:18:44;;;;;;;0.30;0.30;;;-2.20;99.90;;;;;;5073914;28;20441;-87
2021/12/21 03:21:11;;;;;;;0.30;0.30;;;-2.10;99.90;;;;;;5074093;28;20473;-87
2021/12/21 03:23:40;;;;;;;0.40;0.40;;;-2.20;99.90;;;;;;5074046;28;20433;-87
2021/12/21 03:26:08;;;;;;;0.30;0.30;;;-2.20;99.90;;;;;;5073978;28;20532;-87
2021/12/21 03:28:35;;;;;;;0.30;0.30;;;-2.30;99.90;;;;;;5073940;28;20492;-87
2021/12/21 03:31:02;;;;;;;0.30;0.30;;;-2.30;99.90;;;;;;5073901;28;20970;-87
2021/12/21 03:33:29;;;;;;;0.30;0.30;;;-2.30;99.90;;;;;;5073883;28;20437;-87
2021/12/21 03:35:56;;;;;;;0.57;0.57;;;-2.30;99.90;;;;;;5073307;28;20942;-87
2021/12/21 03:38:22;;;;;;;0.30;0.30;;;-2.30;99.90;;;;;;5073469;28;20959;-87
2021/12/21 03:40:49;;;;;;;0.30;0.30;;;-2.30;99.90;;;;;;5073847;28;20426;-87
2021/12/21 03:43:17;;;;;;;0.30;0.30;;;-2.30;99.90;;;;;;5073844;28;20434;-87
2021/12/21 03:45:53;;;;;;;0.30;0.30;;;-2.40;99.90;;;;;;5073936;28;20424;-87
2021/12/21 03:48:20;;;;;;;0.33;0.33;;;-2.40;99.90;;;;;;5073928;28;20464;-87
2021/12/21 03:50:47;;;;;;;0.30;0.30;;;-2.40;99.90;;;;;;5073618;28;20426;-87
2021/12/21 03:53:13;;;;;;;0.80;0.60;;;-2.40;99.90;;;;;;5073641;28;20427;-87
2021/12/21 03:55:40;;;;;;;0.30;0.30;;;-2.40;99.90;;;;;;5073504;28;20456;-87
2021/12/21 03:58:07;;;;;;;0.67;0.67;;;-2.40;99.90;;;;;;5073474;28;20414;-87
2021/12/21 04:00:35;;;;;;;0.30;0.30;;;-2.50;99.90;;;;;;5074446;28;20900;-86
2021/12/21 04:03:02;;;;;;;0.40;0.40;;;-2.40;99.90;;;;;;5073780;28;20437;-87
2021/12/21 04:05:29;;;;;;;0.40;0.40;;;-2.50;99.90;;;;;;5073679;28;20427;-87
2021/12/21 04:07:56;;;;;;;0.30;0.30;;;-2.50;99.90;;;;;;5073644;28;20455;-87
2021/12/21 04:10:23;;;;;;;0.40;0.40;;;-2.40;99.90;;;;;;5074219;28;20926;-88
2021/12/21 04:12:50;;;;;;;0.37;0.37;;;-2.40;99.90;;;;;;5073433;28;20447;-88
2021/12/21 04:15:18;;;;;;;0.30;0.30;;;-2.40;99.90;;;;;;5073571;28;20419;-87
2021/12/21 04:17:46;;;;;;;1.07;1.07;;;-2.40;99.90;;;;;;5073298;28;20448;-88
2021/12/21 04:20:13;;;;;;;0.30;0.30;;;-2.40;99.90;;;;;;5073903;28;20412;-88
2021/12/21 04:22:39;;;;;;;0.30;0.30;;;-2.40;99.90;;;;;;5076861;28;20470;-88
2021/12/21 04:25:07;;;;;;;0.30;0.30;;;-2.40;99.90;;;;;;5076800;28;20437;-88
2021/12/21 04:27:34;;;;;;;0.40;0.40;;;-2.40;99.90;;;;;;5077102;28;20485;-88
2021/12/21 04:30:01;;;;;;;0.30;0.30;;;-2.50;99.90;;;;;;5078182;28;20415;-88
2021/12/21 04:32:27;;;;;;;0.30;0.30;;;-2.50;99.90;;;;;;5078158;28;20465;-87
2021/12/21 04:34:55;;;;;;;0.30;0.30;;;-2.50;99.90;;;;;;5078078;28;20415;-88
2021/12/21 04:37:23;;;;;;;0.30;0.30;;;-2.50;99.90;;;;;;5076999;28;20491;-88
2021/12/21 04:39:57;;;;;;;0.30;0.30;;;-2.50;99.90;;;;;;5077027;28;20434;-88
2021/12/21 04:42:24;;;;;;;0.30;0.30;;;-2.60;99.90;;;;;;5077696;28;20881;-88
2021/12/21 04:44:50;;;;;;;0.30;0.30;;;-2.60;99.90;;;;;;5076824;28;20456;-88
2021/12/21 04:47:17;;;;;;;0.30;0.30;;;-2.60;99.90;;;;;;5076801;28;20426;-88
2021/12/21 04:49:44;;;;;;;0.30;0.30;;;-2.60;99.90;;;;;;5076338;28;20425;-88
2021/12/21 04:52:12;;;;;;;0.30;0.30;;;-2.70;99.90;;;;;;5076389;28;20477;-88
2021/12/21 04:54:39;;;;;;;0.97;0.97;;;-2.60;99.90;;;;;;5077302;28;20426;-88
2021/12/21 04:57:06;;;;;;;0.30;0.30;;;-2.60;99.90;;;;;;5076567;28;20487;-88
2021/12/21 04:59:33;;;;;;;0.30;0.30;;;-2.60;99.90;;;;;;5076491;28;20912;-87
2021/12/21 05:02:00;;;;;;;0.30;0.30;;;-2.60;99.90;;;;;;5076420;28;20461;-88
2021/12/21 05:04:27;;;;;;;0.30;0.30;;;-2.70;99.90;;;;;;5076587;28;20448;-88
2021/12/21 05:06:53;;;;;;;0.80;0.80;;;-2.60;99.90;;;;;;5076333;28;20934;-88
2021/12/21 05:09:27;;;;;;;0.30;0.30;;;-2.70;99.90;;;;;;5076476;28;20463;-88
2021/12/21 05:12:00;;;;;;;0.40;0.40;;;-2.70;99.90;;;;;;5077680;28;20497;-88
2021/12/21 05:14:27;;;;;;;0.40;0.40;;;-2.70;99.90;;;;;;5076477;28;20429;-86
2021/12/21 05:16:54;;;;;;;0.30;0.30;;;-2.60;99.90;;;;;;5076046;28;20408;-87
2021/12/21 05:19:21;;;;;;;0.40;0.40;;;-2.60;99.90;;;;;;5076219;28;20430;-88
2021/12/21 05:21:48;;;;;;;0.40;0.40;;;-2.60;99.90;;;;;;5076296;28;20468;-88
2021/12/21 05:24:15;;;;;;;0.40;0.40;;;-2.70;99.90;;;;;;5076257;28;20456;-88
2021/12/21 05:26:43;;;;;;;0.30;0.30;;;-2.70;99.90;;;;;;5076870;28;20456;-88
2021/12/21 05:29:09;;;;;;;0.70;0.70;;;-2.80;99.90;;;;;;5075751;28;20819;-88
2021/12/21 05:31:36;;;;;;;0.30;0.30;;;-2.80;99.90;;;;;;5075018;28;20946;-87
2021/12/21 05:34:03;;;;;;;0.33;0.33;;;-2.80;99.90;;;;;;5075718;28;20415;-87
2021/12/21 05:36:30;;;;;;;0.30;0.30;;;-2.70;99.90;;;;;;5075782;28;20481;-87
2021/12/21 05:39:01;;;;;;;0.40;0.40;;;-2.80;99.90;;;;;;5075756;28;20441;-87
2021/12/21 05:41:40;;;;;;;0.57;0.57;;;-2.80;99.90;;;;;;5076401;28;20508;-88
2021/12/21 05:44:08;;;;;;;0.30;0.30;;;-2.90;99.90;;;;;;5075794;28;20441;-88
2021/12/21 05:46:35;;;;;;;0.30;0.30;;;-2.90;99.90;;;;;;5075716;28;20430;-88
2021/12/21 05:49:01;;;;;;;0.33;0.33;;;-2.90;99.90;;;;;;5076004;28;20508;-88
2021/12/21 05:51:28;;;;;;;0.60;0.60;;;-2.90;99.90;;;;;;5075679;28;20814;-88
2021/12/21 05:53:55;;;;;;;0.30;0.30;;;-2.90;99.90;;;;;;5075487;28;20415;-88
2021/12/21 05:56:21;;;;;;;0.80;0.80;;;-2.80;99.90;;;;;;5076014;28;20452;-88
2021/12/21 05:58:48;;;;;;;0.30;0.30;;;-2.80;99.90;;;;;;5076002;28;20430;-88
2021/12/21 06:01:16;;;;;;;0.30;0.30;;;-2.80;99.90;;;;;;5075574;28;20834;-88
2021/12/21 06:03:44;;;;;;;0.30;0.30;;;-2.80;99.90;;;;;;5075417;28;20431;-88
2021/12/21 06:06:14;;;;;;;0.30;0.30;;;-2.90;99.90;;;;;;5075706;28;20428;-88
2021/12/21 06:08:41;;;;;;;0.30;0.30;;;-2.90;99.90;;;;;;5075548;28;20522;-88
2021/12/21 06:11:08;;;;;;;0.40;0.40;;;-3.00;99.90;;;;;;5076680;28;20445;-88
2021/12/21 06:14:07;;;;;;;0.30;0.30;;;-3.00;99.90;;;;;;5075757;28;20431;-87
2021/12/21 06:25:36;;;;;;;0.60;0.60;;;-3.10;99.90;;;;;;5033920;28;20864;-88
2021/12/21 06:28:03;;;;;;;0.30;0.30;;;-3.10;99.90;;;;;;5071796;28;21007;-88
2021/12/21 06:30:31;;;;;;;0.30;0.30;;;-3.10;99.90;;;;;;5075598;28;20445;-88
2021/12/21 06:32:59;;;;;;;0.30;0.30;;;-3.00;99.90;;;;;;5075438;28;20435;-88
2021/12/21 06:35:26;;;;;;;0.30;0.30;;;-3.00;99.90;;;;;;5075048;28;20426;-88
2021/12/21 06:37:53;;;;;;;0.30;0.30;;;-3.10;99.90;;;;;;5075310;28;20445;-88
2021/12/21 06:40:21;;;;;;;0.80;0.80;;;-3.00;99.90;;;;;;5075259;28;20452;-88
2021/12/21 06:42:50;;;;;;;0.30;0.30;;;-3.00;99.90;;;;;;5077634;28;20514;-88
2021/12/21 06:45:27;;;;;;;0.30;0.30;;;-3.00;99.90;;;;;;5076153;28;20510;-88
2021/12/21 06:53:31;;;;;;;0.30;0.30;;;-3.10;99.90;;;;;;5065349;28;20493;-88
2021/12/21 06:55:58;;;;;;;0.30;0.30;;;-3.10;99.90;;;;;;5077219;28;20449;-88
2021/12/21 06:58:25;;;;;;;0.30;0.30;;;-3.10;99.90;;;;;;5075796;28;20439;-88
2021/12/21 07:00:53;;;;;;;1.03;0.93;;;-3.00;99.90;;;;;;5076119;28;20437;-88
2021/12/21 07:03:20;;;;;;;0.30;0.30;;;-3.00;99.90;;;;;;5075712;28;20983;-88
2021/12/21 07:05:49;;;;;;;0.50;0.40;;;-3.00;99.90;;;;;;5074680;28;20454;-88
2021/12/21 07:08:21;;;;;;;0.30;0.30;;;-3.10;99.90;;;;;;5075059;28;20415;-88
2021/12/21 07:10:54;;;;;;;1.00;0.60;;;-3.10;99.90;;;;;;5075262;28;20821;-88
2021/12/21 07:18:53;;;;;;;0.40;0.40;;;-3.10;99.90;;;;;;5074579;28;20371;-88
2021/12/21 07:21:21;;;;;;;0.30;0.30;;;-3.00;99.90;;;;;;5074493;28;20535;-88
2021/12/21 07:23:49;;;;;;;0.40;0.40;;;-3.00;99.90;;;;;;5075385;28;20776;-88
2021/12/21 07:26:16;;;;;;;0.37;0.37;;;-3.00;99.90;;;;;;5076163;28;20818;-87
2021/12/21 07:28:43;;;;;;;0.30;0.30;;;-3.00;99.90;;;;;;5074977;28;20847;-88
2021/12/21 07:31:10;;;;;;;0.40;0.40;;;-3.00;99.90;;;;;;5076095;28;20962;-88
2021/12/21 07:33:37;;;;;;;0.30;0.30;;;-3.00;99.90;;;;;;5076202;28;20802;-88
2021/12/21 07:36:04;;;;;;;0.30;0.30;;;-3.00;99.90;;;;;;5075666;28;20435;-88
2021/12/21 07:38:33;;;;;;;0.40;0.40;;;-3.00;99.90;;;;;;5075517;28;20879;-88
2021/12/21 07:41:01;;;;;;;0.30;0.30;;;-3.00;99.90;;;;;;5074629;28;20443;-89
2021/12/21 07:43:28;;;;;;;0.37;0.37;;;-3.00;99.90;;;;;;5075380;28;20531;-88
2021/12/21 07:45:54;;;;;;;0.30;0.30;;;-3.10;99.90;;;;;;5074751;28;20423;-88
2021/12/21 07:48:21;;;;;;;0.30;0.30;;;-3.10;99.90;;;;;;5074482;28;20423;-89
2021/12/21 07:50:51;;;;;;;0.30;0.30;;;-3.10;99.90;;;;;;5076996;28;20434;-87
2021/12/21 07:53:19;;;;;;;0.30;0.30;;;-3.10;99.90;;;;;;5075582;28;20441;-88
2021/12/21 07:55:48;;;;;;;1.13;1.10;;;-3.00;99.90;;;;;;5077065;28;20418;-88
2021/12/21 07:58:15;;;;;;;0.30;0.30;;;-3.10;99.90;;;;;;5079767;28;20840;-88
2021/12/21 08:00:43;;;;;;;0.30;0.30;;;-3.10;99.90;;;;;;5078587;28;20412;-88
2021/12/21 08:03:14;;;;;;;0.30;0.30;;;-3.20;99.90;;;;;;5078439;28;20408;-87
2021/12/21 08:05:44;;;;;;;0.30;0.30;;;-3.10;99.90;;;;;;5078238;28;20931;-87
2021/12/21 08:08:16;;;;;;;0.47;0.47;;;-3.10;99.90;;;;;;5078094;28;20502;-88
2021/12/21 08:10:46;;;;;;;1.33;1.33;;;-3.10;99.90;;;;;;5078937;28;20495;-88
2021/12/21 08:13:15;;;;;;;0.40;0.40;;;-3.10;99.90;;;;;;5079200;28;20456;-88
2021/12/21 08:15:42;;;;;;;0.30;0.30;;;-3.00;99.90;;;;;;5079699;28;20416;-88
2021/12/21 08:18:09;;;;;;;0.30;0.30;;;-3.00;99.90;;;;;;5080895;28;20424;-88
2021/12/21 08:20:36;;;;;;;0.30;0.30;;;-3.00;99.90;;;;;;5079630;28;20409;-88
2021/12/21 08:23:03;;;;;;;0.50;0.50;;;-3.00;99.90;;;;;;5079434;28;20435;-88
2021/12/21 08:25:30;;;;;;;0.40;0.40;;;-2.90;99.90;;;;;;5079427;28;20452;-88
2021/12/21 08:27:58;;;;;;;0.50;0.50;;;-2.90;99.90;;;;;;5079104;28;20520;-88
2021/12/21 08:30:27;;;;;;;1.73;1.63;;;-2.80;99.90;;;;;;5079153;28;20978;-88
2021/12/21 08:32:56;;;;;;;0.40;0.40;;;-2.80;99.90;;;;;;5080250;28;20803;-88
2021/12/21 08:35:24;;;;;;;0.30;0.30;;;-2.80;99.90;;;;;;5079742;28;20445;-87
2021/12/21 08:37:53;;;;;;;0.47;0.47;;;-2.70;99.90;;;;;;5081309;28;20419;-88
2021/12/21 08:40:20;;;;;;;0.30;0.30;;;-2.60;99.90;;;;;;5080107;28;20831;-87
2021/12/21 08:42:49;;;;;;;0.30;0.30;;;-2.50;99.90;;;;;;5079341;28;20455;-87
2021/12/21 08:45:16;;;;;;;0.30;0.30;;;-2.40;99.90;;;;;;5079152;28;20433;-87
2021/12/21 08:47:44;;;;;;;0.50;0.50;;;-2.40;99.90;;;;;;5077130;28;20938;-87
2021/12/21 08:50:14;;;;;;;0.37;0.37;;;-2.30;99.90;;;;;;5077205;28;20481;-87
2021/12/21 08:52:41;;;;;;;0.50;0.50;;;-2.20;99.90;;;;;;5080522;28;20834;-87
2021/12/21 08:55:10;;;;;;;0.40;0.40;;;-2.10;99.90;;;;;;5079222;28;20532;-87
2021/12/21 08:57:37;;;;;;;0.30;0.30;;;-2.10;99.90;;;;;;5078813;28;20478;-87
2021/12/21 09:00:06;;;;;;;0.30;0.30;;;-2.00;99.90;;;;;;5078569;28;20498;-87
2021/12/21 09:02:35;;;;;;;0.30;0.30;;;-2.00;99.90;;;;;;5076587;28;20450;-87
2021/12/21 09:05:07;;;;;;;0.40;0.40;;;-2.00;99.90;;;;;;5076798;28;20449;-87
2021/12/21 09:07:34;;;;;;;0.30;0.30;;;-1.90;99.90;;;;;;5077119;28;20411;-87
2021/12/21 09:10:01;;;;;;;0.30;0.30;;;-1.90;99.90;;;;;;5076642;28;20527;-87
2021/12/21 09:12:27;;;;;;;0.40;0.40;;;-1.80;99.90;;;;;;5076817;28;20476;-87
2021/12/21 09:14:54;;;;;;;0.30;0.30;;;-1.70;99.90;;;;;;5076514;28;20946;-87
2021/12/21 09:17:21;;;;;;;0.47;0.47;;;-1.60;99.90;;;;;;5076563;28;20448;-84
2021/12/21 09:19:48;;;;;;;0.30;0.30;;;-1.60;99.90;;;;;;5076307;28;20540;-87
2021/12/21 09:22:16;;;;;;;0.30;0.30;;;-1.50;99.90;;;;;;5076603;28;20461;-86
2021/12/21 09:24:43;;;;;;;0.30;0.30;;;-1.40;99.90;;;;;;5076582;28;20448;-86
2021/12/21 09:27:11;;;;;;;0.30;0.30;;;-1.30;99.90;;;;;;5076641;28;20925;-85
2021/12/21 09:29:38;;;;;;;0.70;0.60;;;-1.20;99.90;;;;;;5076644;28;20499;-86
2021/12/21 09:32:06;;;;;;;0.30;0.20;;;-1.20;99.90;;;;;;5075769;28;20484;-86
2021/12/21 09:34:33;;;;;;;0.30;0.30;;;-1.20;99.90;;;;;;5075118;28;20833;-83
2021/12/21 09:37:00;;;;;;;0.30;0.30;;;-1.10;99.90;;;;;;5075561;28;20485;-87
2021/12/21 09:39:28;;;;;;;0.30;0.30;;;-1.10;99.90;;;;;;5076421;28;20512;-87
2021/12/21 09:41:55;;;;;;;0.40;0.40;;;-1.00;99.90;;;;;;5076304;28;20449;-87
2021/12/21 09:44:21;;;;;;;0.40;0.40;;;-0.90;99.90;;;;;;5076068;28;20432;-86
2021/12/21 09:46:48;;;;;;;0.40;0.40;;;-0.60;99.90;;;;;;5076989;28;20441;-87
2021/12/21 09:49:15;;;;;;;0.30;0.30;;;0.30;99.90;;;;;;5076990;28;20483;-87
2021/12/21 09:51:42;;;;;;;0.30;0.20;;;1.80;99.90;;;;;;5080614;28;20461;-87
2021/12/21 09:54:09;;;;;;;0.30;0.30;;;3.20;99.90;;;;;;5076566;28;20434;-88
2021/12/21 09:56:37;;;;;;;0.30;0.30;;;4.80;99.90;;;;;;5077369;28;20518;-88
2021/12/21 09:59:04;;;;;;;4.43;0.50;;;6.40;99.90;;;;;;5077990;28;20544;-86
2021/12/21 10:01:30;;;;;;;0.30;0.30;;;7.50;99.90;;;;;;5078787;28;20476;-87
2021/12/21 10:03:57;;;;;;;0.40;0.37;;;8.60;99.90;;;;;;5081234;28;20446;-88
2021/12/21 10:06:24;;;;;;;0.40;0.40;;;9.50;99.90;;;;;;5078321;28;20445;-87
2021/12/21 10:08:51;;;;;;;0.40;0.40;;;10.00;97.70;;;;;;5078257;28;20912;-86
2021/12/21 10:11:19;;;;;;;0.70;0.70;;;10.10;95.80;;;;;;5077395;28;20494;-86
2021/12/21 10:13:47;;;;;;;0.40;0.40;;;9.90;95.70;;;;;;5079455;28;20445;-86
2021/12/21 10:16:21;;;;;;;0.33;0.33;;;9.20;93.80;;;;;;5080491;28;20881;-88
2021/12/21 10:18:49;;;;;;;0.33;0.33;;;8.20;95.50;;;;;;5077164;28;20565;-86
2021/12/21 10:21:17;;;;;;;0.37;0.30;;;7.40;96.90;;;;;;5075857;28;20552;-86
2021/12/21 10:23:52;;;;;;;0.40;0.30;;;6.70;98.40;;;;;;5075602;28;20883;-86
2021/12/21 10:26:21;;;;;;;1.13;1.07;;;6.00;99.90;;;;;;5076693;28;20436;-86
2021/12/21 10:28:51;;;;;;;0.70;0.40;;;5.40;99.90;;;;;;5075364;28;20456;-85
2021/12/21 10:31:25;;;;;;;0.30;0.30;;;4.80;99.90;;;;;;5075459;28;20485;-86
2021/12/21 10:33:52;;;;;;;0.30;0.30;;;4.40;99.90;;;;;;5075187;28;20433;-86
2021/12/21 10:36:19;;;;;;;0.40;0.40;;;4.20;99.90;;;;;;5074795;28;20481;-86
2021/12/21 10:38:51;;;;;;;0.40;0.40;;;3.90;99.90;;;;;;5075203;28;20490;-86
2021/12/21 10:41:21;;;;;;;0.70;0.70;;;3.60;99.90;;;;;;5075554;28;20472;-86
2021/12/21 10:44:02;;;;;;;0.60;0.30;;;3.30;99.90;;;;;;5075010;28;20442;-86
2021/12/21 10:46:29;;;;;;;0.30;0.20;;;3.10;99.90;;;;;;5074662;28;20904;-86
2021/12/21 10:49:06;;;;;;;0.33;0.30;;;2.90;99.90;;;;;;5075215;28;20452;-86
2021/12/21 10:51:36;;;;;;;0.30;0.20;;;2.70;99.90;;;;;;5075929;28;20465;-87
2021/12/21 10:54:03;;;;;;;0.30;0.20;;;2.60;99.90;;;;;;5074927;28;20412;-85
2021/12/21 10:56:30;;;;;;;0.30;0.20;;;2.40;99.90;;;;;;5074683;28;20453;-88
2021/12/21 10:58:56;;;;;;;0.30;0.30;;;2.30;99.90;;;;;;5074446;28;20823;-83
2021/12/21 11:01:27;;;;;;;0.30;0.23;;;2.30;99.90;;;;;;5074429;28;20468;-88
2021/12/21 11:03:56;;;;;;;0.30;0.30;;;2.30;99.90;;;;;;5074914;28;20530;-87
2021/12/21 11:06:27;;;;;;;0.40;0.40;;;2.20;99.90;;;;;;5074486;28;20496;-87
2021/12/21 11:08:55;;;;;;;0.37;0.37;;;2.10;99.90;;;;;;5074719;28;20469;-86
2021/12/21 11:11:26;;;;;;;0.30;0.30;;;2.00;99.90;;;;;;5074232;28;20900;-86
2021/12/21 11:14:01;;;;;;;0.30;0.30;;;2.00;99.90;;;;;;5074768;28;20437;-86
2021/12/21 11:16:36;;;;;;;0.30;0.30;;;2.00;99.90;;;;;;5074748;28;20878;-89
2021/12/21 11:19:03;;;;;;;0.30;0.30;;;2.00;99.90;;;;;;5084552;28;20433;-87
2021/12/21 11:21:32;;;;;;;0.30;0.30;;;2.00;99.90;;;;;;5093189;28;20468;-87
2021/12/21 11:24:02;;;;;;;0.30;0.30;;;2.00;99.90;;;;;;5093255;28;20439;-86
2021/12/21 11:26:29;;;;;;;0.30;0.30;;;2.00;99.90;;;;;;5091977;28;20433;-87
2021/12/21 11:28:56;;;;;;;0.30;0.30;;;2.10;99.90;;;;;;5093519;28;20436;-85
2021/12/21 11:31:24;;;;;;;0.30;0.20;;;2.00;99.90;;;;;;5080148;28;20480;-87
2021/12/21 11:33:56;;;;;;;0.30;0.20;;;2.00;99.90;;;;;;5078837;28;20452;-87
2021/12/21 11:39:09;;;;;;;0.40;0.40;;;2.10;99.90;;;;;;5078795;28;20451;-87
2021/12/21 11:41:39;;;;;;;0.47;0.47;;;2.10;99.90;;;;;;5078831;28;20465;-87
2021/12/21 11:44:13;;;;;;;0.30;0.30;;;2.10;99.90;;;;;;5078657;28;20429;-87
2021/12/21 11:46:51;;;;;;;0.40;0.30;;;2.10;99.90;;;;;;5078596;28;20425;-87
2021/12/21 11:49:27;;;;;;;0.30;0.30;;;2.10;99.90;;;;;;5078884;28;20436;-87
2021/12/21 11:52:04;;;;;;;0.30;0.30;;;1.90;99.90;;;;;;5078503;28;20440;-87
2021/12/21 11:54:42;;;;;;;0.30;0.30;;;1.90;99.90;;;;;;5078894;28;20428;-87
2021/12/21 11:57:08;;;;;;;0.30;0.30;;;1.90;99.90;;;;;;5077804;28;20432;-87
2021/12/21 11:59:35;;;;;;;0.30;0.30;;;1.90;99.90;;;;;;5077775;28;20433;-87
2021/12/21 12:02:04;;;;;;;0.30;0.30;;;1.80;99.90;;;;;;5077576;28;20483;-86
2021/12/21 12:04:33;;;;;;;0.30;0.30;;;1.70;99.90;;;;;;5077662;28;20547;-87
2021/12/21 12:07:00;;;;;;;0.30;0.30;;;1.60;99.90;;;;;;5077215;28;20959;-88
2021/12/21 12:09:30;;;;;;;0.30;0.30;;;1.60;99.90;;;;;;5077591;28;20468;-87
2021/12/21 12:12:08;;;;;;;0.30;0.30;;;1.60;99.90;;;;;;5077779;28;20972;-88
2021/12/21 12:14:37;;;;;;;0.40;0.40;;;1.60;99.90;;;;;;5077248;28;20429;-88
2021/12/21 12:17:11;;;;;;;1.13;0.53;;;1.50;99.90;;;;;;5077305;28;20495;-88
2021/12/21 12:19:43;;;;;;;1.47;0.73;;;1.60;99.90;;;;;;5077292;28;20904;-87
2021/12/21 12:22:14;;;;;;;0.30;0.27;;;1.60;99.90;;;;;;5077218;28;20472;-87
2021/12/21 12:24:42;;;;;;;0.30;0.30;;;1.50;99.90;;;;;;5077511;28;20437;-88
2021/12/21 12:27:10;;;;;;;0.30;0.20;;;1.50;99.90;;;;;;5077195;28;20440;-87
2021/12/21 12:29:46;;;;;;;0.30;0.30;;;1.40;99.90;;;;;;5077059;28;20445;-87
2021/12/21 12:32:13;;;;;;;0.30;0.30;;;1.40;99.90;;;;;;5077178;28;20464;-87
2021/12/21 12:34:43;;;;;;;0.30;0.30;;;1.30;99.90;;;;;;5077111;28;20452;-87
2021/12/21 12:37:19;;;;;;;0.30;0.30;;;1.30;99.90;;;;;;5076507;28;20512;-87
2021/12/21 12:39:49;;;;;;;0.30;0.20;;;1.40;99.90;;;;;;5077151;28;20428;-82
2021/12/21 12:42:23;;;;;;;0.30;0.20;;;1.30;99.90;;;;;;5075991;28;20453;-88
2021/12/21 12:45:02;;;;;;;0.30;0.27;;;1.40;99.90;;;;;;5077156;28;20408;-88
2021/12/21 12:47:28;;;;;;;0.30;0.20;;;1.40;99.90;;;;;;5077007;28;20438;-87
2021/12/21 12:49:57;;;;;;;0.30;0.20;;;1.50;99.90;;;;;;5076727;28;20441;-87
2021/12/21 12:52:28;;;;;;;1.47;0.73;;;1.40;99.90;;;;;;5076774;28;20469;-88
2021/12/21 12:54:57;;;;;;;0.30;0.30;;;1.40;99.90;;;;;;5077374;28;20441;-88
2021/12/21 12:57:30;;;;;;;0.40;0.30;;;1.40;99.90;;;;;;5076491;28;20434;-88
2021/12/21 12:59:59;;;;;;;0.30;0.20;;;1.40;99.90;;;;;;5077712;28;20445;-88
2021/12/21 13:02:27;;;;;;;0.30;0.30;;;1.30;99.90;;;;;;5076284;28;20464;-88
2021/12/21 13:04:53;;;;;;;0.30;0.20;;;1.40;99.90;;;;;;5076395;28;20453;-88
2021/12/21 13:07:28;;;;;;;0.30;0.20;;;1.40;99.90;;;;;;5076372;28;20953;-87
2021/12/21 13:10:04;;;;;;;0.30;0.20;;;1.40;99.90;;;;;;5076068;28;20924;-88
2021/12/21 13:12:31;;;;;;;0.30;0.20;;;1.40;99.90;;;;;;5076152;28;20459;-87
2021/12/21 13:14:57;;;;;;;0.30;0.30;;;1.40;99.90;;;;;;5076423;28;20456;-88
2021/12/21 13:17:24;;;;;;;0.30;0.30;;;1.40;99.90;;;;;;5076259;28;20452;-88
2021/12/21 13:19:51;;;;;;;0.30;0.20;;;1.40;99.90;;;;;;5076307;28;20448;-88
2021/12/21 13:22:22;;;;;;;0.60;0.60;;;1.40;99.90;;;;;;5076203;28;20511;-88
2021/12/21 13:24:52;;;;;;;0.30;0.30;;;1.40;99.90;;;;;;5076203;28;20457;-87
2021/12/21 13:27:21;;;;;;;0.30;0.30;;;1.30;99.90;;;;;;5076201;28;20944;-88
2021/12/21 13:29:49;;;;;;;0.37;0.37;;;1.30;99.90;;;;;;5076106;28;20570;-88
2021/12/21 13:32:20;;;;;;;0.30;0.20;;;1.40;99.90;;;;;;5076012;28;20523;-87
2021/12/21 13:34:52;;;;;;;0.77;0.77;;;1.30;99.90;;;;;;5077123;28;20441;-87
2021/12/21 13:37:19;;;;;;;0.30;0.30;;;1.30;99.90;;;;;;5079824;28;20489;-87